Country
Station

 

Weather  for  Ninoy Aquino Inter-National Airport  -  Philippines    Philippines

  
27 °C (81 °F)
    
 
 

Current METAR for Ninoy Aquino Inter-National Airport is :

RPLL 121400Z 15003KT 090V200 9999 FEW025 SCT100 27/23 Q1014 NOSIG RMK A2994

 

This is a report for Ninoy Aquino Inter-National Airport - Philippines.
 
The report was made 58 minutes ago, at 14:00 UTC .
The wind was blowing at a speed of 1.5 meters per second (3.5 miles per hour) from south/southeast (150°), varying between east (090°) and south/southwest (200°).
 
The temperature was 27 °C (81 °F), with a dew-point at 23 °C (73 °F).
The temperature felt like 30 °C (86 °F).
 
The atmospheric pressure was 1014 hPa (29.94 inHg).
The relative humidity was 78.8%.
 
There were a few clouds at a height of 762 meters (2500 feet) and scattered clouds at a height of 3048 meters (10000 feet).
 
The overall visibility was greater than 10 kilometers (6.2 miles).
 

 
 
 
 

Country :   A   B   C   D   E   F   G   H   I   J   K   L   M   N   O   P   Q   R   S   T   U   V   W   Y   Z

 

Site Info  |  Disclaimer  |  Credits  |  Privacy
Contact us  |  Add to favorites
© 2013-2019 METARs - All rights reserved